sensor_id;sensor_type;location;lat;lon;timestamp;temperature;humidity
41324;DHT22;27073;51.128;4.220;2023-03-01T00:01:24;5.30;94.20
41324;DHT22;27073;51.128;4.220;2023-03-01T00:03:50;5.20;32.00
41324;DHT22;27073;51.128;4.220;2023-03-01T00:06:16;5.10;91.70
41324;DHT22;27073;51.128;4.220;2023-03-01T00:08:42;5.00;99.90
41324;DHT22;27073;51.128;4.220;2023-03-01T00:11:13;5.00;99.90
41324;DHT22;27073;51.128;4.220;2023-03-01T00:13:40;5.00;99.90
41324;DHT22;27073;51.128;4.220;2023-03-01T00:16:09;5.00;99.90
41324;DHT22;27073;51.128;4.220;2023-03-01T00:18:35;5.00;99.90
41324;DHT22;27073;51.128;4.220;2023-03-01T00:21:01;5.00;99.90
41324;DHT22;27073;51.128;4.220;2023-03-01T00:23:27;4.80;99.90
41324;DHT22;27073;51.128;4.220;2023-03-01T00:25:54;4.70;99.90
41324;DHT22;27073;51.128;4.220;2023-03-01T00:28:20;4.80;99.90
41324;DHT22;27073;51.128;4.220;2023-03-01T00:30:46;4.80;99.90
41324;DHT22;27073;51.128;4.220;2023-03-01T00:33:12;4.70;99.90
41324;DHT22;27073;51.128;4.220;2023-03-01T00:35:38;4.80;99.90
41324;DHT22;27073;51.128;4.220;2023-03-01T00:38:04;4.80;99.90
41324;DHT22;27073;51.128;4.220;2023-03-01T00:40:32;4.80;99.90
41324;DHT22;27073;51.128;4.220;2023-03-01T00:42:58;4.70;99.90
41324;DHT22;27073;51.128;4.220;2023-03-01T00:45:24;4.60;99.90
41324;DHT22;27073;51.128;4.220;2023-03-01T00:47:51;4.60;99.90
41324;DHT22;27073;51.128;4.220;2023-03-01T00:50:17;4.60;99.90
41324;DHT22;27073;51.128;4.220;2023-03-01T00:52:43;4.70;99.90
41324;DHT22;27073;51.128;4.220;2023-03-01T00:55:10;4.60;99.90
41324;DHT22;27073;51.128;4.220;2023-03-01T00:57:36;4.50;99.90
41324;DHT22;27073;51.128;4.220;2023-03-01T01:00:03;4.60;99.90
41324;DHT22;27073;51.128;4.220;2023-03-01T01:02:29;4.50;99.90
41324;DHT22;27073;51.128;4.220;2023-03-01T01:04:55;4.50;99.90
41324;DHT22;27073;51.128;4.220;2023-03-01T01:07:21;4.50;99.90
41324;DHT22;27073;51.128;4.220;2023-03-01T01:09:46;4.50;99.90
41324;DHT22;27073;51.128;4.220;2023-03-01T01:12:12;4.40;99.90
41324;DHT22;27073;51.128;4.220;2023-03-01T01:14:38;4.40;1.00
41324;DHT22;27073;51.128;4.220;2023-03-01T01:17:04;4.40;1.00
41324;DHT22;27073;51.128;4.220;2023-03-01T01:19:30;4.40;99.90
41324;DHT22;27073;51.128;4.220;2023-03-01T01:21:56;4.40;1.00
41324;DHT22;27073;51.128;4.220;2023-03-01T01:24:22;4.40;1.00
41324;DHT22;27073;51.128;4.220;2023-03-01T01:26:48;4.40;1.00
41324;DHT22;27073;51.128;4.220;2023-03-01T01:29:14;4.40;99.90
41324;DHT22;27073;51.128;4.220;2023-03-01T01:31:41;4.40;1.00
41324;DHT22;27073;51.128;4.220;2023-03-01T01:34:12;4.50;99.90
41324;DHT22;27073;51.128;4.220;2023-03-01T01:36:38;4.40;99.90
41324;DHT22;27073;51.128;4.220;2023-03-01T01:39:04;4.50;99.90
41324;DHT22;27073;51.128;4.220;2023-03-01T01:41:30;4.50;99.90
41324;DHT22;27073;51.128;4.220;2023-03-01T01:44:25;4.40;1.00
41324;DHT22;27073;51.128;4.220;2023-03-01T01:46:58;4.40;1.00
41324;DHT22;27073;51.128;4.220;2023-03-01T01:49:29;4.40;1.00
41324;DHT22;27073;51.128;4.220;2023-03-01T01:55:07;4.30;1.00
41324;DHT22;27073;51.128;4.220;2023-03-01T01:57:41;4.30;1.00
41324;DHT22;27073;51.128;4.220;2023-03-01T02:00:16;4.30;1.00
41324;DHT22;27073;51.128;4.220;2023-03-01T02:02:44;4.30;1.00
41324;DHT22;27073;51.128;4.220;2023-03-01T02:08:04;4.20;1.00
41324;DHT22;27073;51.128;4.220;2023-03-01T02:10:33;4.30;1.00
41324;DHT22;27073;51.128;4.220;2023-03-01T02:13:00;4.20;1.00
41324;DHT22;27073;51.128;4.220;2023-03-01T02:15:26;4.10;1.00
41324;DHT22;27073;51.128;4.220;2023-03-01T02:17:56;4.20;1.00
41324;DHT22;27073;51.128;4.220;2023-03-01T02:23:11;3.90;1.00
41324;DHT22;27073;51.128;4.220;2023-03-01T02:25:49;4.00;1.00
41324;DHT22;27073;51.128;4.220;2023-03-01T02:28:36;3.90;1.00
41324;DHT22;27073;51.128;4.220;2023-03-01T02:31:04;3.90;1.00
41324;DHT22;27073;51.128;4.220;2023-03-01T02:33:49;4.00;1.00
41324;DHT22;27073;51.128;4.220;2023-03-01T02:36:22;3.90;1.00
41324;DHT22;27073;51.128;4.220;2023-03-01T02:38:51;3.90;1.00
41324;DHT22;27073;51.128;4.220;2023-03-01T02:41:19;4.00;1.00
41324;DHT22;27073;51.128;4.220;2023-03-01T02:43:46;4.10;1.00
41324;DHT22;27073;51.128;4.220;2023-03-01T02:46:19;4.10;1.00
41324;DHT22;27073;51.128;4.220;2023-03-01T02:48:50;4.10;1.00
41324;DHT22;27073;51.128;4.220;2023-03-01T02:57:11;3.90;1.00
41324;DHT22;27073;51.128;4.220;2023-03-01T02:59:38;3.90;1.00
41324;DHT22;27073;51.128;4.220;2023-03-01T03:02:22;3.70;1.00
41324;DHT22;27073;51.128;4.220;2023-03-01T03:05:16;3.70;1.00
41324;DHT22;27073;51.128;4.220;2023-03-01T03:07:45;3.60;1.00
41324;DHT22;27073;51.128;4.220;2023-03-01T03:10:14;3.60;1.00
41324;DHT22;27073;51.128;4.220;2023-03-01T03:12:41;3.70;1.00
41324;DHT22;27073;51.128;4.220;2023-03-01T03:15:08;3.50;1.00
41324;DHT22;27073;51.128;4.220;2023-03-01T03:17:39;3.50;1.00
41324;DHT22;27073;51.128;4.220;2023-03-01T03:20:07;3.50;1.00
41324;DHT22;27073;51.128;4.220;2023-03-01T03:22:38;3.60;1.00
41324;DHT22;27073;51.128;4.220;2023-03-01T03:25:06;3.60;1.00
41324;DHT22;27073;51.128;4.220;2023-03-01T03:27:36;3.60;1.00
41324;DHT22;27073;51.128;4.220;2023-03-01T03:30:04;3.50;2.70
41324;DHT22;27073;51.128;4.220;2023-03-01T03:32:38;3.60;1.00
41324;DHT22;27073;51.128;4.220;2023-03-01T03:35:04;3.50;1.00
41324;DHT22;27073;51.128;4.220;2023-03-01T03:37:41;3.60;1.00
41324;DHT22;27073;51.128;4.220;2023-03-01T03:40:27;3.50;1.00
41324;DHT22;27073;51.128;4.220;2023-03-01T03:42:53;3.60;1.00
41324;DHT22;27073;51.128;4.220;2023-03-01T03:45:19;3.50;1.00
41324;DHT22;27073;51.128;4.220;2023-03-01T03:47:44;3.40;2.00
41324;DHT22;27073;51.128;4.220;2023-03-01T03:50:11;3.40;2.40
41324;DHT22;27073;51.128;4.220;2023-03-01T03:52:37;3.30;3.80
41324;DHT22;27073;51.128;4.220;2023-03-01T03:55:04;3.30;7.40
41324;DHT22;27073;51.128;4.220;2023-03-01T03:57:40;3.20;8.60
41324;DHT22;27073;51.128;4.220;2023-03-01T04:00:09;3.20;13.00
41324;DHT22;27073;51.128;4.220;2023-03-01T04:02:39;3.10;10.20
41324;DHT22;27073;51.128;4.220;2023-03-01T04:05:06;3.30;9.50
41324;DHT22;27073;51.128;4.220;2023-03-01T04:07:34;3.10;12.80
41324;DHT22;27073;51.128;4.220;2023-03-01T04:10:01;3.10;14.30
41324;DHT22;27073;51.128;4.220;2023-03-01T04:12:26;3.20;17.90
41324;DHT22;27073;51.128;4.220;2023-03-01T04:14:52;3.20;16.00
41324;DHT22;27073;51.128;4.220;2023-03-01T04:17:18;3.20;14.30
41324;DHT22;27073;51.128;4.220;2023-03-01T04:19:44;3.20;16.60
41324;DHT22;27073;51.128;4.220;2023-03-01T04:22:15;3.20;18.00
41324;DHT22;27073;51.128;4.220;2023-03-01T04:24:43;3.30;16.20
41324;DHT22;27073;51.128;4.220;2023-03-01T04:27:09;3.20;16.60
41324;DHT22;27073;51.128;4.220;2023-03-01T04:29:34;3.20;11.90
41324;DHT22;27073;51.128;4.220;2023-03-01T04:32:00;3.20;12.30
41324;DHT22;27073;51.128;4.220;2023-03-01T04:34:26;3.10;17.80
41324;DHT22;27073;51.128;4.220;2023-03-01T04:36:52;3.20;17.70
41324;DHT22;27073;51.128;4.220;2023-03-01T04:39:18;3.20;14.40
41324;DHT22;27073;51.128;4.220;2023-03-01T04:41:44;3.20;15.70
41324;DHT22;27073;51.128;4.220;2023-03-01T04:44:10;3.30;12.50
41324;DHT22;27073;51.128;4.220;2023-03-01T04:46:36;3.30;11.10
41324;DHT22;27073;51.128;4.220;2023-03-01T04:49:03;3.30;9.70
41324;DHT22;27073;51.128;4.220;2023-03-01T04:51:29;3.20;15.70
41324;DHT22;27073;51.128;4.220;2023-03-01T04:53:55;3.30;15.20
41324;DHT22;27073;51.128;4.220;2023-03-01T04:56:20;3.20;14.70
41324;DHT22;27073;51.128;4.220;2023-03-01T04:58:48;3.30;14.30
41324;DHT22;27073;51.128;4.220;2023-03-01T05:01:19;3.40;9.90
41324;DHT22;27073;51.128;4.220;2023-03-01T05:03:50;3.30;13.90
41324;DHT22;27073;51.128;4.220;2023-03-01T05:06:16;3.20;16.50
41324;DHT22;27073;51.128;4.220;2023-03-01T05:08:43;3.20;14.80
41324;DHT22;27073;51.128;4.220;2023-03-01T05:11:10;3.10;14.00
41324;DHT22;27073;51.128;4.220;2023-03-01T05:13:37;3.20;12.50
41324;DHT22;27073;51.128;4.220;2023-03-01T05:16:05;3.10;16.80
41324;DHT22;27073;51.128;4.220;2023-03-01T05:18:32;3.00;20.60
41324;DHT22;27073;51.128;4.220;2023-03-01T05:21:09;3.00;20.60
41324;DHT22;27073;51.128;4.220;2023-03-01T05:23:36;3.00;21.50
41324;DHT22;27073;51.128;4.220;2023-03-01T05:26:04;3.00;20.70
41324;DHT22;27073;51.128;4.220;2023-03-01T05:28:31;3.10;19.00
41324;DHT22;27073;51.128;4.220;2023-03-01T05:30:58;3.10;18.70
41324;DHT22;27073;51.128;4.220;2023-03-01T05:33:24;3.10;17.20
41324;DHT22;27073;51.128;4.220;2023-03-01T05:35:51;3.10;18.60
41324;DHT22;27073;51.128;4.220;2023-03-01T05:38:18;3.10;20.10
41324;DHT22;27073;51.128;4.220;2023-03-01T05:40:45;2.90;22.10
41324;DHT22;27073;51.128;4.220;2023-03-01T05:43:13;3.00;24.60
41324;DHT22;27073;51.128;4.220;2023-03-01T05:45:40;3.00;23.40
41324;DHT22;27073;51.128;4.220;2023-03-01T05:48:07;3.00;22.70
41324;DHT22;27073;51.128;4.220;2023-03-01T05:50:35;2.90;23.00
41324;DHT22;27073;51.128;4.220;2023-03-01T05:53:16;2.90;24.20
41324;DHT22;27073;51.128;4.220;2023-03-01T05:55:42;2.90;26.50
41324;DHT22;27073;51.128;4.220;2023-03-01T05:58:14;2.90;25.40
41324;DHT22;27073;51.128;4.220;2023-03-01T06:00:39;3.00;23.30
41324;DHT22;27073;51.128;4.220;2023-03-01T06:03:06;2.90;22.90
41324;DHT22;27073;51.128;4.220;2023-03-01T06:05:32;2.80;25.00
41324;DHT22;27073;51.128;4.220;2023-03-01T06:08:00;2.90;24.50
41324;DHT22;27073;51.128;4.220;2023-03-01T06:10:26;2.70;24.60
41324;DHT22;27073;51.128;4.220;2023-03-01T06:12:51;2.70;28.00
41324;DHT22;27073;51.128;4.220;2023-03-01T06:15:18;2.70;25.90
41324;DHT22;27073;51.128;4.220;2023-03-01T06:17:45;2.70;26.90
41324;DHT22;27073;51.128;4.220;2023-03-01T06:20:18;2.70;26.40
41324;DHT22;27073;51.128;4.220;2023-03-01T06:22:45;2.70;26.00
41324;DHT22;27073;51.128;4.220;2023-03-01T06:25:14;2.70;27.40
41324;DHT22;27073;51.128;4.220;2023-03-01T06:27:41;2.60;26.90
41324;DHT22;27073;51.128;4.220;2023-03-01T06:30:09;2.60;24.70
41324;DHT22;27073;51.128;4.220;2023-03-01T06:32:45;2.60;27.10
41324;DHT22;27073;51.128;4.220;2023-03-01T06:35:18;2.70;23.00
41324;DHT22;27073;51.128;4.220;2023-03-01T06:37:45;2.80;17.80
41324;DHT22;27073;51.128;4.220;2023-03-01T06:40:12;2.90;13.90
41324;DHT22;27073;51.128;4.220;2023-03-01T06:42:42;2.90;13.20
41324;DHT22;27073;51.128;4.220;2023-03-01T06:45:08;2.80;17.80
41324;DHT22;27073;51.128;4.220;2023-03-01T06:47:34;2.70;17.60
41324;DHT22;27073;51.128;4.220;2023-03-01T06:50:01;2.60;20.20
41324;DHT22;27073;51.128;4.220;2023-03-01T06:52:27;2.60;18.60
41324;DHT22;27073;51.128;4.220;2023-03-01T06:54:52;2.60;19.60
41324;DHT22;27073;51.128;4.220;2023-03-01T06:57:18;2.50;23.50
41324;DHT22;27073;51.128;4.220;2023-03-01T06:59:44;2.60;21.70
41324;DHT22;27073;51.128;4.220;2023-03-01T07:02:13;2.80;18.30
41324;DHT22;27073;51.128;4.220;2023-03-01T07:04:40;2.70;16.10
41324;DHT22;27073;51.128;4.220;2023-03-01T07:07:06;2.80;16.00
41324;DHT22;27073;51.128;4.220;2023-03-01T07:09:32;2.80;14.90
41324;DHT22;27073;51.128;4.220;2023-03-01T07:11:58;2.70;15.20
41324;DHT22;27073;51.128;4.220;2023-03-01T07:14:24;2.80;7.00
41324;DHT22;27073;51.128;4.220;2023-03-01T07:16:52;2.80;9.20
41324;DHT22;27073;51.128;4.220;2023-03-01T07:19:18;2.80;8.10
41324;DHT22;27073;51.128;4.220;2023-03-01T07:21:43;2.90;10.60
41324;DHT22;27073;51.128;4.220;2023-03-01T07:24:10;2.90;8.40
41324;DHT22;27073;51.128;4.220;2023-03-01T07:26:36;2.90;6.60
41324;DHT22;27073;51.128;4.220;2023-03-01T07:29:04;2.90;8.40
41324;DHT22;27073;51.128;4.220;2023-03-01T07:31:30;2.90;8.60
41324;DHT22;27073;51.128;4.220;2023-03-01T07:33:56;2.80;10.50
41324;DHT22;27073;51.128;4.220;2023-03-01T07:36:23;2.70;12.80
41324;DHT22;27073;51.128;4.220;2023-03-01T07:38:49;2.80;14.90
41324;DHT22;27073;51.128;4.220;2023-03-01T07:41:14;2.80;14.20
41324;DHT22;27073;51.128;4.220;2023-03-01T07:43:40;2.80;15.90
41324;DHT22;27073;51.128;4.220;2023-03-01T07:46:06;2.60;18.00
41324;DHT22;27073;51.128;4.220;2023-03-01T07:48:33;2.70;19.70
41324;DHT22;27073;51.128;4.220;2023-03-01T07:50:59;2.80;19.80
41324;DHT22;27073;51.128;4.220;2023-03-01T07:53:26;2.80;17.30
41324;DHT22;27073;51.128;4.220;2023-03-01T07:56:11;2.80;16.60
41324;DHT22;27073;51.128;4.220;2023-03-01T07:58:38;2.90;15.00
41324;DHT22;27073;51.128;4.220;2023-03-01T08:01:06;2.80;19.30
41324;DHT22;27073;51.128;4.220;2023-03-01T08:03:33;2.90;18.30
41324;DHT22;27073;51.128;4.220;2023-03-01T08:06:00;2.90;18.10
41324;DHT22;27073;51.128;4.220;2023-03-01T08:08:27;3.00;17.50
41324;DHT22;27073;51.128;4.220;2023-03-01T08:10:52;2.80;16.90
41324;DHT22;27073;51.128;4.220;2023-03-01T08:13:21;2.70;20.30
41324;DHT22;27073;51.128;4.220;2023-03-01T08:15:51;2.80;19.70
41324;DHT22;27073;51.128;4.220;2023-03-01T08:18:17;2.90;21.40
41324;DHT22;27073;51.128;4.220;2023-03-01T08:20:44;2.90;20.30
41324;DHT22;27073;51.128;4.220;2023-03-01T08:23:10;2.80;20.30
41324;DHT22;27073;51.128;4.220;2023-03-01T08:25:36;2.80;22.80
41324;DHT22;27073;51.128;4.220;2023-03-01T08:28:02;2.90;23.80
41324;DHT22;27073;51.128;4.220;2023-03-01T08:30:28;3.00;20.80
41324;DHT22;27073;51.128;4.220;2023-03-01T08:32:54;3.00;21.10
41324;DHT22;27073;51.128;4.220;2023-03-01T08:35:20;3.10;19.70
41324;DHT22;27073;51.128;4.220;2023-03-01T08:37:46;3.20;19.10
41324;DHT22;27073;51.128;4.220;2023-03-01T08:40:13;3.30;11.20
41324;DHT22;27073;51.128;4.220;2023-03-01T08:42:40;3.30;13.90
41324;DHT22;27073;51.128;4.220;2023-03-01T08:45:09;3.10;13.00
41324;DHT22;27073;51.128;4.220;2023-03-01T08:47:35;3.20;10.30
41324;DHT22;27073;51.128;4.220;2023-03-01T08:50:01;3.20;5.30
41324;DHT22;27073;51.128;4.220;2023-03-01T08:52:26;3.10;8.20
41324;DHT22;27073;51.128;4.220;2023-03-01T08:54:53;3.00;8.60
41324;DHT22;27073;51.128;4.220;2023-03-01T08:57:20;3.10;10.10
41324;DHT22;27073;51.128;4.220;2023-03-01T08:59:45;3.00;2.40
41324;DHT22;27073;51.128;4.220;2023-03-01T09:02:14;3.10;1.00
41324;DHT22;27073;51.128;4.220;2023-03-01T09:04:40;3.10;2.80
41324;DHT22;27073;51.128;4.220;2023-03-01T09:07:06;3.10;1.00
41324;DHT22;27073;51.128;4.220;2023-03-01T09:09:32;3.00;1.00
41324;DHT22;27073;51.128;4.220;2023-03-01T09:11:58;3.10;1.00
41324;DHT22;27073;51.128;4.220;2023-03-01T09:14:24;3.30;1.00
41324;DHT22;27073;51.128;4.220;2023-03-01T09:16:49;3.50;1.00
41324;DHT22;27073;51.128;4.220;2023-03-01T09:19:15;3.60;1.00
41324;DHT22;27073;51.128;4.220;2023-03-01T09:21:41;3.60;1.00
41324;DHT22;27073;51.128;4.220;2023-03-01T09:24:21;3.50;1.00
41324;DHT22;27073;51.128;4.220;2023-03-01T09:26:49;3.60;1.00
41324;DHT22;27073;51.128;4.220;2023-03-01T09:29:15;3.60;1.00
41324;DHT22;27073;51.128;4.220;2023-03-01T09:31:43;3.80;1.00
41324;DHT22;27073;51.128;4.220;2023-03-01T09:34:09;3.70;1.00
41324;DHT22;27073;51.128;4.220;2023-03-01T09:36:35;3.60;1.00
41324;DHT22;27073;51.128;4.220;2023-03-01T09:39:01;3.60;1.00
41324;DHT22;27073;51.128;4.220;2023-03-01T09:44:29;3.90;1.00
41324;DHT22;27073;51.128;4.220;2023-03-01T09:46:57;4.10;1.00
41324;DHT22;27073;51.128;4.220;2023-03-01T09:49:43;4.20;1.00
41324;DHT22;27073;51.128;4.220;2023-03-01T09:52:43;4.10;1.00
41324;DHT22;27073;51.128;4.220;2023-03-01T09:55:14;4.10;1.00
41324;DHT22;27073;51.128;4.220;2023-03-01T09:58:00;4.20;1.00
41324;DHT22;27073;51.128;4.220;2023-03-01T10:00:46;4.20;1.00
41324;DHT22;27073;51.128;4.220;2023-03-01T10:03:17;4.40;99.90
41324;DHT22;27073;51.128;4.220;2023-03-01T10:06:05;4.60;99.90
41324;DHT22;27073;51.128;4.220;2023-03-01T10:08:54;4.70;99.90
41324;DHT22;27073;51.128;4.220;2023-03-01T10:11:24;4.70;99.90
41324;DHT22;27073;51.128;4.220;2023-03-01T10:13:58;4.60;99.90
41324;DHT22;27073;51.128;4.220;2023-03-01T10:17:03;4.80;99.90
41324;DHT22;27073;51.128;4.220;2023-03-01T10:19:44;4.90;99.90
41324;DHT22;27073;51.128;4.220;2023-03-01T10:22:26;5.00;99.90
41324;DHT22;27073;51.128;4.220;2023-03-01T10:24:56;4.90;99.90
41324;DHT22;27073;51.128;4.220;2023-03-01T10:27:36;5.00;99.90
41324;DHT22;27073;51.128;4.220;2023-03-01T10:32:42;4.90;99.90
41324;DHT22;27073;51.128;4.220;2023-03-01T10:35:17;5.00;99.90
41324;DHT22;27073;51.128;4.220;2023-03-01T10:38:06;5.20;99.90
41324;DHT22;27073;51.128;4.220;2023-03-01T10:40:34;5.30;99.90
41324;DHT22;27073;51.128;4.220;2023-03-01T10:43:02;5.40;91.90
41324;DHT22;27073;51.128;4.220;2023-03-01T10:50:30;5.60;1.00
41324;DHT22;27073;51.128;4.220;2023-03-01T10:52:58;5.70;99.90
41324;DHT22;27073;51.128;4.220;2023-03-01T10:55:39;5.70;99.90
41324;DHT22;27073;51.128;4.220;2023-03-01T10:58:12;5.70;99.90
41324;DHT22;27073;51.128;4.220;2023-03-01T11:00:56;5.70;99.90
41324;DHT22;27073;51.128;4.220;2023-03-01T11:03:29;5.70;99.90
41324;DHT22;27073;51.128;4.220;2023-03-01T11:06:01;5.80;1.00
41324;DHT22;27073;51.128;4.220;2023-03-01T11:11:06;5.90;99.90
41324;DHT22;27073;51.128;4.220;2023-03-01T11:13:32;5.90;99.90
41324;DHT22;27073;51.128;4.220;2023-03-01T11:16:00;6.00;57.50
41324;DHT22;27073;51.128;4.220;2023-03-01T11:18:26;6.10;99.90
41324;DHT22;27073;51.128;4.220;2023-03-01T11:20:55;6.20;99.90
41324;DHT22;27073;51.128;4.220;2023-03-01T11:23:22;6.30;96.30
41324;DHT22;27073;51.128;4.220;2023-03-01T11:25:56;6.20;1.00
41324;DHT22;27073;51.128;4.220;2023-03-01T11:28:22;6.30;1.00
41324;DHT22;27073;51.128;4.220;2023-03-01T11:31:05;6.40;99.90
41324;DHT22;27073;51.128;4.220;2023-03-01T11:34:06;6.40;1.00
41324;DHT22;27073;51.128;4.220;2023-03-01T11:36:46;6.60;13.00
41324;DHT22;27073;51.128;4.220;2023-03-01T11:39:37;6.70;99.90
41324;DHT22;27073;51.128;4.220;2023-03-01T11:42:56;6.70;99.90
41324;DHT22;27073;51.128;4.220;2023-03-01T11:45:08;6.60;99.90
41324;DHT22;27073;51.128;4.220;2023-03-01T11:47:58;6.60;99.90
41324;DHT22;27073;51.128;4.220;2023-03-01T12:01:40;7.00;28.40
41324;DHT22;27073;51.128;4.220;2023-03-01T12:07:31;7.30;1.00
41324;DHT22;27073;51.128;4.220;2023-03-01T12:12:34;7.50;99.90
41324;DHT22;27073;51.128;4.220;2023-03-01T12:24:10;7.60;78.50
41324;DHT22;27073;51.128;4.220;2023-03-01T12:26:54;7.70;59.60
41324;DHT22;27073;51.128;4.220;2023-03-01T12:29:26;7.80;73.70
41324;DHT22;27073;51.128;4.220;2023-03-01T12:32:20;7.90;3.50
41324;DHT22;27073;51.128;4.220;2023-03-01T12:35:11;8.10;52.00
41324;DHT22;27073;51.128;4.220;2023-03-01T12:42:49;8.20;1.00
41324;DHT22;27073;51.128;4.220;2023-03-01T12:50:26;8.60;99.90
41324;DHT22;27073;51.128;4.220;2023-03-01T12:52:58;8.50;69.40
41324;DHT22;27073;51.128;4.220;2023-03-01T12:55:39;8.50;99.90
41324;DHT22;27073;51.128;4.220;2023-03-01T13:01:00;8.70;42.70
41324;DHT22;27073;51.128;4.220;2023-03-01T13:06:25;8.90;44.50
41324;DHT22;27073;51.128;4.220;2023-03-01T13:11:22;9.10;1.00
41324;DHT22;27073;51.128;4.220;2023-03-01T13:13:48;9.20;1.00
41324;DHT22;27073;51.128;4.220;2023-03-01T13:16:41;9.10;99.90
41324;DHT22;27073;51.128;4.220;2023-03-01T13:19:13;9.20;99.90
41324;DHT22;27073;51.128;4.220;2023-03-01T13:21:41;9.00;99.90
41324;DHT22;27073;51.128;4.220;2023-03-01T13:24:41;9.00;99.90
41324;DHT22;27073;51.128;4.220;2023-03-01T13:29:53;9.30;99.90
41324;DHT22;27073;51.128;4.220;2023-03-01T13:34:51;9.40;99.90
41324;DHT22;27073;51.128;4.220;2023-03-01T13:37:40;9.20;99.90
41324;DHT22;27073;51.128;4.220;2023-03-01T13:42:53;9.60;99.90
41324;DHT22;27073;51.128;4.220;2023-03-01T13:45:22;9.70;99.90
41324;DHT22;27073;51.128;4.220;2023-03-01T13:48:42;9.80;73.80
41324;DHT22;27073;51.128;4.220;2023-03-01T13:50:54;9.70;38.00
41324;DHT22;27073;51.128;4.220;2023-03-01T13:53:25;9.60;49.40
41324;DHT22;27073;51.128;4.220;2023-03-01T13:55:55;9.80;43.00
41324;DHT22;27073;51.128;4.220;2023-03-01T13:58:25;9.80;1.00
41324;DHT22;27073;51.128;4.220;2023-03-01T14:01:06;9.60;1.00
41324;DHT22;27073;51.128;4.220;2023-03-01T14:03:40;9.70;1.00
41324;DHT22;27073;51.128;4.220;2023-03-01T14:06:12;9.70;1.00
41324;DHT22;27073;51.128;4.220;2023-03-01T14:08:38;9.80;4.20
41324;DHT22;27073;51.128;4.220;2023-03-01T14:16:28;10.00;1.00
41324;DHT22;27073;51.128;4.220;2023-03-01T14:19:23;10.10;1.00
41324;DHT22;27073;51.128;4.220;2023-03-01T14:22:05;10.20;1.00
41324;DHT22;27073;51.128;4.220;2023-03-01T14:24:40;10.00;1.00
41324;DHT22;27073;51.128;4.220;2023-03-01T14:27:13;9.80;1.00
41324;DHT22;27073;51.128;4.220;2023-03-01T14:29:40;9.80;1.00
41324;DHT22;27073;51.128;4.220;2023-03-01T14:32:32;9.90;1.00
41324;DHT22;27073;51.128;4.220;2023-03-01T14:34:59;10.00;1.00
41324;DHT22;27073;51.128;4.220;2023-03-01T14:37:33;10.20;1.00
41324;DHT22;27073;51.128;4.220;2023-03-01T14:40:01;10.20;1.00
41324;DHT22;27073;51.128;4.220;2023-03-01T14:42:31;10.00;1.00
41324;DHT22;27073;51.128;4.220;2023-03-01T14:45:00;10.10;1.00
41324;DHT22;27073;51.128;4.220;2023-03-01T14:47:35;10.10;1.00
41324;DHT22;27073;51.128;4.220;2023-03-01T14:52:49;10.20;1.00
41324;DHT22;27073;51.128;4.220;2023-03-01T14:55:19;10.50;1.00
41324;DHT22;27073;51.128;4.220;2023-03-01T14:57:47;10.50;99.90
41324;DHT22;27073;51.128;4.220;2023-03-01T15:00:19;10.70;99.90
41324;DHT22;27073;51.128;4.220;2023-03-01T15:02:48;10.50;99.90
41324;DHT22;27073;51.128;4.220;2023-03-01T15:05:15;10.70;99.90
41324;DHT22;27073;51.128;4.220;2023-03-01T15:07:45;11.00;99.90
41324;DHT22;27073;51.128;4.220;2023-03-01T15:10:21;11.00;99.90
41324;DHT22;27073;51.128;4.220;2023-03-01T15:12:48;10.80;99.90
41324;DHT22;27073;51.128;4.220;2023-03-01T15:15:35;11.20;99.90
41324;DHT22;27073;51.128;4.220;2023-03-01T15:18:13;11.40;99.90
41324;DHT22;27073;51.128;4.220;2023-03-01T15:20:39;11.60;99.90
41324;DHT22;27073;51.128;4.220;2023-03-01T15:23:05;12.20;99.90
41324;DHT22;27073;51.128;4.220;2023-03-01T15:25:32;13.30;99.90
41324;DHT22;27073;51.128;4.220;2023-03-01T15:28:00;13.50;99.90
41324;DHT22;27073;51.128;4.220;2023-03-01T15:30:34;14.10;99.60
41324;DHT22;27073;51.128;4.220;2023-03-01T15:33:26;14.50;77.40
41324;DHT22;27073;51.128;4.220;2023-03-01T15:35:56;15.20;37.60
41324;DHT22;27073;51.128;4.220;2023-03-01T15:41:02;16.90;1.00
41324;DHT22;27073;51.128;4.220;2023-03-01T15:43:42;17.20;1.00
41324;DHT22;27073;51.128;4.220;2023-03-01T15:46:29;17.80;1.00
41324;DHT22;27073;51.128;4.220;2023-03-01T15:49:20;17.30;1.00
41324;DHT22;27073;51.128;4.220;2023-03-01T15:51:42;17.00;1.00
41324;DHT22;27073;51.128;4.220;2023-03-01T15:54:18;16.70;1.00
41324;DHT22;27073;51.128;4.220;2023-03-01T15:56:45;16.70;1.00
41324;DHT22;27073;51.128;4.220;2023-03-01T15:59:11;17.00;1.00
41324;DHT22;27073;51.128;4.220;2023-03-01T16:01:39;17.10;1.00
41324;DHT22;27073;51.128;4.220;2023-03-01T16:04:05;15.80;1.00
41324;DHT22;27073;51.128;4.220;2023-03-01T16:06:31;15.90;1.00
41324;DHT22;27073;51.128;4.220;2023-03-01T16:08:56;15.80;1.00
41324;DHT22;27073;51.128;4.220;2023-03-01T16:11:22;15.50;1.00
41324;DHT22;27073;51.128;4.220;2023-03-01T16:13:48;15.80;1.00
41324;DHT22;27073;51.128;4.220;2023-03-01T16:16:15;15.80;1.00
41324;DHT22;27073;51.128;4.220;2023-03-01T16:18:43;16.10;1.00
41324;DHT22;27073;51.128;4.220;2023-03-01T16:21:13;16.60;1.00
41324;DHT22;27073;51.128;4.220;2023-03-01T16:23:41;16.00;1.00
41324;DHT22;27073;51.128;4.220;2023-03-01T16:26:07;16.50;1.00
41324;DHT22;27073;51.128;4.220;2023-03-01T16:28:33;16.40;1.00
41324;DHT22;27073;51.128;4.220;2023-03-01T16:30:59;16.40;1.00
41324;DHT22;27073;51.128;4.220;2023-03-01T16:33:26;16.60;1.00
41324;DHT22;27073;51.128;4.220;2023-03-01T16:35:52;16.80;1.00
41324;DHT22;27073;51.128;4.220;2023-03-01T16:38:18;16.60;1.00
41324;DHT22;27073;51.128;4.220;2023-03-01T16:40:48;16.20;1.00
41324;DHT22;27073;51.128;4.220;2023-03-01T16:43:14;15.90;1.00
41324;DHT22;27073;51.128;4.220;2023-03-01T16:45:40;16.00;1.00
41324;DHT22;27073;51.128;4.220;2023-03-01T16:48:10;15.70;1.00
41324;DHT22;27073;51.128;4.220;2023-03-01T16:50:36;15.00;1.00
41324;DHT22;27073;51.128;4.220;2023-03-01T16:53:02;15.00;1.00
41324;DHT22;27073;51.128;4.220;2023-03-01T16:55:28;15.30;1.00
41324;DHT22;27073;51.128;4.220;2023-03-01T16:57:53;15.20;1.00
41324;DHT22;27073;51.128;4.220;2023-03-01T17:00:19;14.70;1.00
41324;DHT22;27073;51.128;4.220;2023-03-01T17:02:46;14.50;1.00
41324;DHT22;27073;51.128;4.220;2023-03-01T17:05:11;13.60;1.00
41324;DHT22;27073;51.128;4.220;2023-03-01T17:07:38;13.20;1.00
41324;DHT22;27073;51.128;4.220;2023-03-01T17:10:05;13.00;1.00
41324;DHT22;27073;51.128;4.220;2023-03-01T17:12:33;12.40;1.00
41324;DHT22;27073;51.128;4.220;2023-03-01T17:14:59;11.80;1.00
41324;DHT22;27073;51.128;4.220;2023-03-01T17:17:26;11.30;6.90
41324;DHT22;27073;51.128;4.220;2023-03-01T17:19:52;10.70;45.70
41324;DHT22;27073;51.128;4.220;2023-03-01T17:22:18;10.60;96.70
41324;DHT22;27073;51.128;4.220;2023-03-01T17:24:44;10.60;99.90
41324;DHT22;27073;51.128;4.220;2023-03-01T17:27:11;10.30;99.90
41324;DHT22;27073;51.128;4.220;2023-03-01T17:29:38;10.30;99.90
41324;DHT22;27073;51.128;4.220;2023-03-01T17:32:04;9.70;99.90
41324;DHT22;27073;51.128;4.220;2023-03-01T17:34:32;9.70;99.90
41324;DHT22;27073;51.128;4.220;2023-03-01T17:36:57;9.70;99.90
41324;DHT22;27073;51.128;4.220;2023-03-01T17:39:23;9.60;99.90